»·PEaware :: N326MC KLAS-KFLG

N326MC :: KLAS-KFLG

FLIGHT INFORMATION

Flight Status: Arrived
Operator: Privately registered:
United States
More flights under this callsign
Pilot: Anonymous 5456 (5456)
Aircraft: MITSUBISHI MU-2 MARQUISE
(MU2)
More flights by this aircraft type
Origin: KLAS McCarran Intl
United States
Destination: KFLG Flagstaff Pulliam
United States
More flights between these airports :: More routes between these airports
Route: +PGS
File this flight plan on PilotEdge
Remarks:
Altitude:
(Current/Filed)
23,000ft
Speed:
(Current/Filed)
300kts
Departed: 10-Jan-18 08:41 AM
Arrived: 10-Jan-18 09:27 AM
Distance/Time
Traveled:
179nm/0:46
Distance/Time
To Go:
Arrived

Flight Plot

Page will automatically refresh every two minutes.

Flight plan parsing failed; only flown route is shown


Map Options




Map Legend


Flown Route
Filed Route
Departure Airport
Arrival Airport
Navaid (VOR, NDB)
Fix

Horizontal Profiles

Position Reports

Time Latitude Longitude Heading Altitude Ground
Speed
10-Jan-18 08:33 36.100134 -115.159609 207 2145ft 0kts
10-Jan-18 08:34 36.100134 -115.159609 207 2145ft 0kts
10-Jan-18 08:35 36.100134 -115.159609 208 2145ft 0kts
10-Jan-18 08:36 36.100134 -115.159610 208 2145ft 0kts
10-Jan-18 08:37 36.100134 -115.159610 208 2145ft 0kts
10-Jan-18 08:38 36.100134 -115.159610 208 2145ft 0kts
10-Jan-18 08:39 36.100134 -115.159610 208 2145ft 0kts
10-Jan-18 08:40 36.100134 -115.159610 208 2145ft 0kts
10-Jan-18 08:41 36.100134 -115.159610 208 2145ft 0kts
10-Jan-18 08:42 36.100134 -115.159610 208 2145ft 0kts
10-Jan-18 08:43 36.100134 -115.159610 208 2145ft 0kts
10-Jan-18 08:44 36.100134 -115.159610 208 2145ft 0kts
10-Jan-18 08:45 36.099754 -115.158311 77 2145ft 5kts
10-Jan-18 08:46 36.099841 -115.157575 88 2145ft 0kts
10-Jan-18 08:47 36.090974 -115.161406 204 2149ft 128kts
10-Jan-18 08:48 36.047606 -115.172079 188 3679ft 170kts
10-Jan-18 08:49 35.998496 -115.174240 187 5061ft 206kts
10-Jan-18 08:50 35.943029 -115.180343 185 7055ft 190kts
10-Jan-18 08:51 35.917732 -115.128149 103 9229ft 201kts
10-Jan-18 08:52 35.901389 -115.048495 101 10314ft 256kts
10-Jan-18 08:53 35.886322 -114.971541 100 11674ft 265kts
10-Jan-18 08:54 35.868848 -114.882451 100 13216ft 271kts
10-Jan-18 08:55 35.849570 -114.791330 100 14736ft 279kts
10-Jan-18 08:56 35.829550 -114.692365 98 15034ft 313kts
10-Jan-18 08:57 35.813830 -114.583753 93 15031ft 328kts
10-Jan-18 08:58 35.796665 -114.473649 97 15030ft 334kts
10-Jan-18 08:59 35.776726 -114.367916 97 16345ft 308kts
10-Jan-18 09:00 35.757808 -114.265854 96 17536ft 307kts
10-Jan-18 09:01 35.739200 -114.164966 95 19047ft 300kts
10-Jan-18 09:02 35.720959 -114.065710 93 20543ft 302kts
10-Jan-18 09:03 35.702507 -113.964666 92 21999ft 307kts
10-Jan-18 09:04 35.683672 -113.860600 91 22998ft 328kts
10-Jan-18 09:05 35.663531 -113.744968 92 22999ft 359kts
10-Jan-18 09:06 35.641659 -113.623944 93 22998ft 369kts
10-Jan-18 09:07 35.616560 -113.501081 99 22998ft 376kts
10-Jan-18 09:08 35.585881 -113.379153 98 23000ft 377kts
10-Jan-18 09:09 35.556323 -113.261403 99 22992ft 377kts
10-Jan-18 09:10 35.526182 -113.142281 99 22976ft 369kts
10-Jan-18 09:11 35.497084 -113.023181 100 21396ft 364kts
10-Jan-18 09:12 35.468431 -112.911003 102 19747ft 343kts
10-Jan-18 09:13 35.442672 -112.810000 104 18199ft 329kts
10-Jan-18 09:14 35.416494 -112.707694 105 16541ft 306kts
10-Jan-18 09:15 35.392100 -112.614307 105 14910ft 288kts
10-Jan-18 09:16 35.367956 -112.519607 105 13300ft 304kts
10-Jan-18 09:17 35.342711 -112.422788 106 13018ft 304kts
10-Jan-18 09:18 35.317929 -112.327657 107 13014ft 305kts
10-Jan-18 09:19 35.292672 -112.231849 108 13014ft 304kts
10-Jan-18 09:20 35.266410 -112.137876 107 13015ft 304kts
10-Jan-18 09:21 35.241318 -112.042582 106 13014ft 306kts
10-Jan-18 09:22 35.215802 -111.945878 107 13007ft 307kts
10-Jan-18 09:23 35.190013 -111.848628 107 13002ft 307kts
10-Jan-18 09:24 35.181921 -111.749685 83 13005ft 304kts
10-Jan-18 09:25 35.178565 -111.650548 91 13001ft 306kts
10-Jan-18 09:26 35.173603 -111.549950 91 12999ft 306kts
10-Jan-18 09:27 35.200036 -111.469690 42 13000ft 259kts
10-Jan-18 09:28 35.251359 -111.419235 333 12131ft 249kts
10-Jan-18 09:29 35.264993 -111.486341 251 11031ft 214kts
10-Jan-18 09:30 35.236908 -111.548828 223 9735ft 223kts
10-Jan-18 09:31 35.194052 -111.602042 228 8424ft 222kts
10-Jan-18 09:32 35.154369 -111.652819 230 7254ft 184kts
10-Jan-18 09:33 35.137336 -111.673835 295 7015ft 9kts
10-Jan-18 09:34 35.136406 -111.676035 225 7015ft 0kts
10-Jan-18 09:35 35.136407 -111.676035 225 7015ft 0kts
10-Jan-18 09:36 35.136407 -111.676035 225 7015ft 0kts
10-Jan-18 09:37 35.136407 -111.676035 225 7015ft 0kts
10-Jan-18 09:38 35.136272 -111.676713 222 7019ft 0kts
10-Jan-18 09:39 35.136272 -111.676713 222 7019ft 0kts
10-Jan-18 09:40 35.136272 -111.676713 222 7019ft 0kts
10-Jan-18 09:41 35.136272 -111.676713 222 7019ft 0kts
10-Jan-18 09:42 35.136272 -111.676713 222 7019ft 0kts
10-Jan-18 09:43 35.136272 -111.676713 222 7019ft 0kts

Navigation Log

Ident Type
Flight plan parsing failed, navigation log unavailable